Change the Weather History Date:

Thursday, January 24, 2013

  Actual Average (KFSD) Record (KFSD)
Temperature  
Mean Temperature 6 °F 17 °F  
Max Temperature 17 °F 27 °F 66 °F (1981)
Min Temperature -4 °F 7 °F -32 °F (1894)
Degree Days  
Heating Degree Days 58 48  
Month to date heating degree days 1170  
Since 1 July heating degree days 4303  
Cooling Degree Days 0 0  
Month to date cooling degree days 0  
Year to date cooling degree days 0  
Moisture  
Dew Point -4 °F    
Average Humidity 63    
Maximum Humidity 72    
Minimum Humidity 57    
Precipitation  
Precipitation 0.00 in 0.01 in 0.22 in (1956)
Month to date precipitation 0.43  
Year to date precipitation 0.43  
Snow  
Snow 0.00 in 0.30 in 2.60 in (1956)
Month to date snowfall 5.9  
Since 1 July snowfall 22.8  
Snow Depth -    
Sea Level Pressure  
Sea Level Pressure 30.35 in    
Wind  
Wind Speed 11 mph (SE)    
Max Wind Speed 20 mph    
Max Gust Speed 24 mph    
Visibility 10 miles    
Events      
T = Trace of Precipitation, MM = Missing Value Source: NWS Daily Summary

Daily Weather History Graph

Daily Weather History Graph

Search for Another Location

Airport or City:

Trip Planner

Search our weather history database for the weather conditions in past years. The results will help you decide how hot, cold, wet, or windy it might be!

Date:

Astronomy

Jan. 24, 2013 Rise Set
Actual Time 7:48 AM CST 5:25 PM CST
Civil Twilight 7:17 AM CST 5:56 PM CST
Nautical Twilight 6:42 AM CST 6:31 PM CST
Astronomical Twilight 6:09 AM CST 7:05 PM CST
Moon 3:27 PM CST (1/24) 5:48 AM CST (1/24)
Length of Visible Light 10h 39m
Length of Day
9h 36m
Waxing Gibbous, 94% of the Moon is Illuminated
Jan 24
Waxing Gibbous
Jan 26
Full
Feb 3
Last Quarter
Feb 10
New
Feb 17
First Quarter

Hourly Weather History & Observations

Time (CST) Temp. Windchill Dew Point Humidity Pressure Visibility Wind Dir Wind Speed Gust Speed Precip Events Conditions
12:16 AM -4.0 °F -21.2 °F -14.8 °F 60% 30.53 in 10.0 mi NE 10.4 mph - N/A   Clear
12:36 AM -4.0 °F -19.0 °F -14.8 °F 60% 30.54 in 10.0 mi NE 8.1 mph - N/A   Clear
12:56 AM -4.0 °F -19.0 °F -14.8 °F 60% 30.54 in 10.0 mi NE 8.1 mph - N/A   Clear
1:16 AM -4.0 °F -17.8 °F -14.8 °F 60% 30.55 in 10.0 mi NE 6.9 mph - N/A   Clear
1:36 AM -4.0 °F -20.2 °F -13.0 °F 65% 30.55 in 10.0 mi NE 9.2 mph - N/A   Clear
1:56 AM -4.0 °F -19.0 °F -14.8 °F 60% 30.55 in 10.0 mi ENE 8.1 mph - N/A   Clear
2:16 AM -4.0 °F -19.0 °F -13.0 °F 65% 30.55 in 10.0 mi NE 8.1 mph - N/A   Clear
2:36 AM -4.0 °F -20.2 °F -14.8 °F 60% 30.55 in 10.0 mi ENE 9.2 mph - N/A   Clear
2:56 AM -4.0 °F -14.6 °F -13.0 °F 65% 30.56 in 10.0 mi ENE 4.6 mph - N/A   Clear
3:16 AM -4.0 °F -20.2 °F -13.0 °F 65% 30.55 in 10.0 mi ENE 9.2 mph - N/A   Clear
3:36 AM -4.0 °F -19.0 °F -13.0 °F 65% 30.55 in 10.0 mi East 8.1 mph - N/A   Clear
3:55 AM -4.0 °F -19.0 °F -13.0 °F 65% 30.55 in 10.0 mi East 8.1 mph - N/A   Clear
4:16 AM -4.0 °F -16.3 °F -13.0 °F 65% 30.55 in 10.0 mi East 5.8 mph - N/A   Clear
4:36 AM -4.0 °F -14.6 °F -13.0 °F 65% 30.57 in 10.0 mi ESE 4.6 mph - N/A   Clear
4:56 AM -2.2 °F -12.5 °F -13.0 °F 60% 30.54 in 10.0 mi ESE 4.6 mph - N/A   Clear
5:16 AM -2.2 °F -14.2 °F -11.2 °F 66% 30.54 in 10.0 mi ESE 5.8 mph - N/A   Clear
5:36 AM -2.2 °F -14.2 °F -11.2 °F 66% 30.53 in 10.0 mi East 5.8 mph - N/A   Clear
5:56 AM -2.2 °F -15.6 °F -11.2 °F 66% 30.51 in 10.0 mi East 6.9 mph - N/A   Clear
6:16 AM -2.2 °F -16.8 °F -11.2 °F 66% 30.51 in 10.0 mi ESE 8.1 mph - N/A   Clear
6:35 AM -2.2 °F -18.0 °F -9.4 °F 71% 30.53 in 10.0 mi East 9.2 mph - N/A   Clear
6:56 AM -0.4 °F -16.7 °F -9.4 °F 66% 30.51 in 10.0 mi East 10.4 mph - N/A   Clear
7:16 AM -0.4 °F -16.7 °F -9.4 °F 66% 30.51 in 10.0 mi ESE 10.4 mph - N/A   Clear
7:35 AM -0.4 °F -15.7 °F -9.4 °F 66% 30.49 in 10.0 mi ESE 9.2 mph - N/A   Clear
7:56 AM -0.4 °F -16.7 °F -9.4 °F 66% 30.50 in 10.0 mi ESE 10.4 mph - N/A   Clear
8:16 AM -0.4 °F -15.7 °F -7.6 °F 72% 30.49 in 10.0 mi SE 9.2 mph - N/A   Clear
8:35 AM -0.4 °F -17.6 °F -7.6 °F 72% 30.49 in 10.0 mi SE 11.5 mph - N/A   Clear
8:56 AM 1.4 °F -14.5 °F -7.6 °F 66% 30.49 in 10.0 mi SE 10.4 mph - N/A   Clear
9:16 AM 1.4 °F -13.5 °F -7.6 °F 66% 30.48 in 10.0 mi SE 9.2 mph - N/A   Clear
9:35 AM 1.4 °F -15.3 °F -7.6 °F 66% 30.48 in 10.0 mi SE 11.5 mph - N/A   Clear
9:56 AM 3.2 °F -14.6 °F -7.6 °F 61% 30.46 in 10.0 mi SE 13.8 mph - N/A   Clear
10:15 AM 3.2 °F -13.9 °F -5.8 °F 66% 30.47 in 10.0 mi SSE 12.7 mph - N/A   Clear
10:36 AM 3.2 °F -14.6 °F -5.8 °F 66% 30.44 in 10.0 mi SE 13.8 mph - N/A   Clear
10:56 AM 5.0 °F -10.8 °F -5.8 °F 61% 30.45 in 10.0 mi SSE 11.5 mph - N/A   Clear
11:15 AM 5.0 °F -10.0 °F -5.8 °F 61% 30.44 in 10.0 mi SSE 10.4 mph - N/A   Clear
11:36 AM 6.8 °F -11.3 °F -4.0 °F 61% 30.42 in 10.0 mi SSE 16.1 mph 20.7 mph N/A   Clear
11:56 AM 8.6 °F -7.0 °F -4.0 °F 57% 30.42 in 10.0 mi SSE 12.7 mph - N/A   Clear
12:16 PM 8.6 °F -7.7 °F -2.2 °F 62% 30.40 in 10.0 mi South 13.8 mph 18.4 mph N/A   Clear
12:36 PM 8.6 °F -7.7 °F -4.0 °F 57% 30.38 in 10.0 mi SSE 13.8 mph - N/A   Clear
12:56 PM 8.6 °F -10.0 °F -2.2 °F 62% 30.35 in 10.0 mi South 18.4 mph - N/A   Clear
1:16 PM 8.6 °F -8.9 °F -2.2 °F 62% 30.33 in 10.0 mi SSE 16.1 mph 20.7 mph N/A   Clear
1:36 PM 10.4 °F -6.0 °F -2.2 °F 57% 30.33 in 10.0 mi SSE 15.0 mph - N/A   Clear
1:55 PM 10.4 °F -4.8 °F -0.4 °F 62% 30.31 in 10.0 mi SSE 12.7 mph 21.9 mph N/A   Clear
2:16 PM 12.2 °F -3.7 °F -0.4 °F 57% 30.29 in 10.0 mi SSE 15.0 mph - N/A   Clear
2:35 PM 12.2 °F -4.3 °F 1.4 °F 62% 30.27 in 10.0 mi South 16.1 mph 20.7 mph N/A   Clear
2:56 PM 12.2 °F -3.1 °F 1.4 °F 62% 30.25 in 10.0 mi SSE 13.8 mph 20.7 mph N/A   Scattered Clouds
3:16 PM 12.2 °F -4.8 °F 1.4 °F 62% 30.24 in 10.0 mi SSE 17.3 mph 24.2 mph N/A   Mostly Cloudy
3:35 PM 12.2 °F -5.8 °F 1.4 °F 62% 30.22 in 10.0 mi SSE 19.6 mph 24.2 mph N/A   Overcast
3:56 PM 12.2 °F -1.8 °F 1.4 °F 62% 30.21 in 10.0 mi South 11.5 mph 21.9 mph N/A   Overcast
4:16 PM 12.2 °F -4.8 °F 1.4 °F 62% 30.21 in 10.0 mi SSE 17.3 mph - N/A   Overcast
4:35 PM 12.2 °F -4.8 °F 1.4 °F 62% 30.20 in 10.0 mi SSE 17.3 mph 21.9 mph N/A   Overcast
4:56 PM 12.2 °F -3.7 °F 1.4 °F 62% 30.18 in 10.0 mi SSE 15.0 mph 23.0 mph N/A   Overcast
5:16 PM 12.2 °F -2.5 °F 1.4 °F 62% 30.18 in 10.0 mi SSE 12.7 mph 24.2 mph N/A   Overcast
5:35 PM 12.2 °F -5.8 °F 1.4 °F 62% 30.15 in 10.0 mi SSE 19.6 mph 24.2 mph N/A   Overcast
5:56 PM 12.2 °F -3.1 °F 3.2 °F 67% 30.15 in 10.0 mi SSE 13.8 mph 19.6 mph N/A   Overcast
6:16 PM 12.2 °F -4.3 °F 3.2 °F 67% 30.16 in 10.0 mi SSE 16.1 mph 19.6 mph N/A   Overcast
6:35 PM 12.2 °F -1.8 °F 3.2 °F 67% 30.18 in 10.0 mi SSE 11.5 mph - N/A   Overcast
6:56 PM 14.0 °F 0.5 °F 3.2 °F 62% 30.17 in 10.0 mi SSE 11.5 mph - N/A   Overcast
7:15 PM 14.0 °F -0.8 °F 3.2 °F 62% 30.13 in 10.0 mi SSE 13.8 mph - N/A   Overcast
7:36 PM 14.0 °F 0.5 °F 3.2 °F 62% 30.13 in 10.0 mi South 11.5 mph 17.3 mph N/A   Mostly Cloudy
7:56 PM 14.0 °F -0.2 °F 5.0 °F 67% 30.15 in 10.0 mi South 12.7 mph - N/A   Mostly Cloudy
8:15 PM 14.0 °F -0.2 °F 5.0 °F 67% 30.15 in 10.0 mi South 12.7 mph - N/A   Overcast
8:36 PM 14.0 °F 0.5 °F 5.0 °F 67% 30.15 in 10.0 mi South 11.5 mph 17.3 mph N/A   Overcast
8:56 PM 14.0 °F -0.8 °F 5.0 °F 67% 30.14 in 10.0 mi South 13.8 mph - N/A   Overcast
9:16 PM 15.8 °F 2.7 °F 5.0 °F 62% 30.15 in 10.0 mi South 11.5 mph - N/A   Overcast
9:36 PM 15.8 °F 2.7 °F 6.8 °F 68% 30.13 in 10.0 mi South 11.5 mph - N/A   Overcast
9:56 PM 17.6 °F 4.3 °F 6.8 °F 63% 30.14 in 10.0 mi SSW 12.7 mph - N/A   Overcast
10:16 PM 17.6 °F 2.7 °F 6.8 °F 63% 30.11 in 10.0 mi South 16.1 mph - N/A   Overcast
10:36 PM 17.6 °F 2.2 °F 6.8 °F 63% 30.08 in 10.0 mi South 17.3 mph 23.0 mph N/A   Overcast
10:56 PM 17.6 °F 3.2 °F 6.8 °F 63% 30.11 in 10.0 mi SSW 15.0 mph - N/A   Overcast
11:16 PM 17.6 °F 2.7 °F 5.0 °F 58% 30.09 in 10.0 mi SSW 16.1 mph - N/A   Mostly Cloudy
11:35 PM 17.6 °F 5.0 °F 5.0 °F 58% 30.10 in 10.0 mi SW 11.5 mph 19.6 mph N/A   Mostly Cloudy
11:56 PM 15.8 °F 0.9 °F 5.0 °F 62% 30.08 in 10.0 mi SSW 15.0 mph - N/A   Scattered Clouds